createdAt,value
2022-09-30T00:01:51.356Z,100540.47
2022-09-30T00:04:23.232Z,100538.22
2022-09-30T00:06:52.282Z,100542.59
2022-09-30T00:09:18.862Z,100541.41
2022-09-30T00:11:46.643Z,100532.53
2022-09-30T00:14:22.389Z,100542.69
2022-09-30T00:16:49.351Z,100537.78
2022-09-30T00:19:16.034Z,100548.56
2022-09-30T00:21:42.743Z,100545.47
2022-09-30T00:24:09.251Z,100546.44
2022-09-30T00:26:35.730Z,100546.44
2022-09-30T00:29:02.992Z,100545.25
2022-09-30T00:31:32.400Z,100538.09
2022-09-30T00:34:08.118Z,100540.03
2022-09-30T00:36:43.406Z,100541.91
2022-09-30T00:39:12.611Z,100553.81
2022-09-30T00:41:39.952Z,100546.75
2022-09-30T00:44:44.219Z,100548.84
2022-09-30T00:47:40.146Z,100554.41
2022-09-30T00:50:06.667Z,100551.41
2022-09-30T00:52:34.029Z,100551.50
2022-09-30T00:55:02.128Z,100550.31
2022-09-30T00:57:29.069Z,100555.91
2022-09-30T00:59:55.524Z,100549.66
2022-09-30T01:02:22.521Z,100558.44
2022-09-30T01:04:49.084Z,100562.63
2022-09-30T01:07:15.648Z,100555.63
2022-09-30T01:09:43.302Z,100558.66
2022-09-30T01:12:13.986Z,100556.09
2022-09-30T01:14:40.956Z,100551.00
2022-09-30T01:17:24.860Z,100551.53
2022-09-30T01:20:36.448Z,100562.03
2022-09-30T01:23:08.853Z,100559.47
2022-09-30T01:25:38.131Z,100554.13
2022-09-30T01:28:39.900Z,100563.22
2022-09-30T01:31:31.401Z,100557.03
2022-09-30T01:34:06.374Z,100560.06
2022-09-30T01:37:03.287Z,100553.56
2022-09-30T01:39:45.628Z,100556.91
2022-09-30T01:42:30.846Z,100557.69
2022-09-30T01:45:12.347Z,100552.03
2022-09-30T01:48:21.874Z,100549.53
2022-09-30T01:51:26.820Z,100556.16
2022-09-30T01:53:57.991Z,100555.13
2022-09-30T01:56:34.471Z,100558.84
2022-09-30T01:59:08.358Z,100567.59
2022-09-30T02:01:40.399Z,100567.34
2022-09-30T02:04:13.752Z,100571.72
2022-09-30T02:06:44.165Z,100563.53
2022-09-30T02:09:17.957Z,100566.03
2022-09-30T02:11:44.416Z,100563.22
2022-09-30T02:14:16.985Z,100551.88
2022-09-30T02:17:02.178Z,100569.88
2022-09-30T02:19:44.087Z,100566.56
2022-09-30T02:22:15.545Z,100563.22
2022-09-30T02:24:43.923Z,100567.56
2022-09-30T02:27:18.231Z,100577.59
2022-09-30T02:29:50.199Z,100583.09
2022-09-30T02:32:24.610Z,100583.09
2022-09-30T02:34:55.823Z,100582.59
2022-09-30T02:37:28.454Z,100580.44
2022-09-30T02:40:04.817Z,100583.56
2022-09-30T02:42:31.784Z,100586.06
2022-09-30T02:45:04.101Z,100587.56
2022-09-30T02:47:58.392Z,100593.59
2022-09-30T02:50:39.662Z,100593.91
2022-09-30T02:53:21.450Z,100590.16
2022-09-30T02:56:04.611Z,100593.75
2022-09-30T02:58:31.132Z,100598.78
2022-09-30T03:00:57.921Z,100604.09
2022-09-30T03:03:30.390Z,100604.09
2022-09-30T03:05:57.041Z,100595.63
2022-09-30T03:08:23.574Z,100597.78
2022-09-30T03:10:51.269Z,100600.06
2022-09-30T03:13:20.698Z,100591.88
2022-09-30T03:16:05.421Z,100591.81
2022-09-30T03:18:41.366Z,100597.28
2022-09-30T03:21:41.173Z,100597.03
2022-09-30T03:24:22.972Z,100599.78
2022-09-30T03:27:02.460Z,100596.56
2022-09-30T03:29:35.911Z,100595.19
2022-09-30T03:32:20.548Z,100600.94
2022-09-30T03:35:09.137Z,100594.75
2022-09-30T03:37:58.848Z,100600.22
2022-09-30T03:40:30.684Z,100604.97
2022-09-30T03:43:03.090Z,100618.09
2022-09-30T03:45:36.848Z,100616.31
2022-09-30T03:48:06.121Z,100615.00
2022-09-30T03:50:33.833Z,100615.00
2022-09-30T03:53:00.768Z,100608.66
2022-09-30T03:55:28.154Z,100617.00
2022-09-30T03:57:54.607Z,100617.53
2022-09-30T04:00:21.259Z,100621.41
2022-09-30T04:02:48.343Z,100622.47
2022-09-30T04:05:14.880Z,100622.94
2022-09-30T04:07:41.247Z,100631.75
2022-09-30T04:10:08.066Z,100629.13
2022-09-30T04:12:34.682Z,100637.13
2022-09-30T04:15:01.086Z,100644.03
2022-09-30T04:17:27.504Z,100645.56
2022-09-30T04:19:53.933Z,100645.75
2022-09-30T04:22:23.216Z,100649.28
2022-09-30T04:24:52.623Z,100652.44
2022-09-30T04:27:19.160Z,100650.94
2022-09-30T04:29:45.631Z,100649.22
2022-09-30T04:32:12.014Z,100645.41
2022-09-30T04:34:38.483Z,100661.78
2022-09-30T04:37:09.985Z,100658.84
2022-09-30T04:39:37.470Z,100667.97
2022-09-30T04:42:04.197Z,100664.88
2022-09-30T04:44:30.591Z,100662.53
2022-09-30T04:46:57.189Z,100672.72
2022-09-30T04:49:24.346Z,100669.78
2022-09-30T04:51:50.837Z,100671.78
2022-09-30T04:54:17.411Z,100686.63
2022-09-30T04:56:43.798Z,100695.09
2022-09-30T04:59:10.384Z,100697.94
2022-09-30T05:01:36.952Z,100694.09
2022-09-30T05:04:03.430Z,100688.13
2022-09-30T05:06:29.827Z,100693.88
2022-09-30T05:08:56.313Z,100694.44
2022-09-30T05:11:22.984Z,100697.69
2022-09-30T05:13:51.010Z,100686.41
2022-09-30T05:16:18.127Z,100702.38
2022-09-30T05:18:46.047Z,100693.59
2022-09-30T05:21:17.825Z,100691.09
2022-09-30T05:23:44.237Z,100694.91
2022-09-30T05:26:12.434Z,100701.72
2022-09-30T05:28:39.804Z,100701.47
2022-09-30T05:31:06.628Z,100718.75
2022-09-30T05:33:33.501Z,100714.47
2022-09-30T05:36:04.998Z,100714.03
2022-09-30T05:38:31.700Z,100710.75
2022-09-30T05:40:58.176Z,100708.50
2022-09-30T05:43:24.620Z,100712.00
2022-09-30T05:45:55.795Z,100716.16
2022-09-30T05:48:23.409Z,100721.28
2022-09-30T05:50:54.241Z,100722.63
2022-09-30T05:53:20.980Z,100718.88
2022-09-30T05:55:48.107Z,100709.84
2022-09-30T05:58:15.320Z,100723.38
2022-09-30T06:00:42.874Z,100725.22
2022-09-30T06:03:09.377Z,100727.31
2022-09-30T06:05:36.046Z,100730.53
2022-09-30T06:08:03.106Z,100729.53
2022-09-30T06:10:29.715Z,100732.75
2022-09-30T06:12:56.122Z,100732.94
2022-09-30T06:15:22.561Z,100737.06
2022-09-30T06:17:53.524Z,100742.06
2022-09-30T06:20:20.635Z,100736.81
2022-09-30T06:22:47.262Z,100734.31
2022-09-30T06:25:14.508Z,100742.31
2022-09-30T06:27:45.159Z,100751.09
2022-09-30T06:30:12.373Z,100748.41
2022-09-30T06:32:38.928Z,100755.25
2022-09-30T06:35:05.738Z,100754.69
2022-09-30T06:37:32.137Z,100756.06
2022-09-30T06:39:58.573Z,100753.63
2022-09-30T06:42:25.018Z,100759.75
2022-09-30T06:44:53.426Z,100766.94
2022-09-30T06:47:25.291Z,100766.34
2022-09-30T06:49:52.998Z,100774.44
2022-09-30T06:52:20.078Z,100769.63
2022-09-30T06:54:46.964Z,100767.97
2022-09-30T06:57:13.804Z,100767.84
2022-09-30T06:59:40.665Z,100766.94
2022-09-30T07:02:08.860Z,100762.78
2022-09-30T07:04:35.494Z,100762.13
2022-09-30T07:07:02.860Z,100765.44
2022-09-30T07:09:29.283Z,100760.78
2022-09-30T07:11:55.735Z,100767.03
2022-09-30T07:14:24.058Z,100770.13
2022-09-30T07:16:53.106Z,100769.97
2022-09-30T07:19:22.879Z,100771.75
2022-09-30T07:21:50.107Z,100775.78
2022-09-30T07:24:17.774Z,100779.84
2022-09-30T07:26:47.042Z,100783.59
2022-09-30T07:29:13.845Z,100785.66
2022-09-30T07:31:41.114Z,100789.13
2022-09-30T07:34:08.922Z,100793.88
2022-09-30T07:36:37.939Z,100791.31
2022-09-30T07:39:06.982Z,100793.59
2022-09-30T07:41:36.509Z,100801.16
2022-09-30T07:44:06.269Z,100794.66
2022-09-30T07:46:34.234Z,100798.84
2022-09-30T07:49:04.003Z,100800.63
2022-09-30T07:51:34.198Z,100805.69
2022-09-30T07:54:03.275Z,100802.78
2022-09-30T07:56:45.644Z,100803.41
2022-09-30T07:59:17.027Z,100810.69
2022-09-30T08:01:43.601Z,100813.44
2022-09-30T08:04:11.132Z,100808.84
2022-09-30T08:06:45.159Z,100811.06
2022-09-30T08:09:12.802Z,100809.63
2022-09-30T08:11:39.681Z,100802.16
2022-09-30T08:14:06.068Z,100793.69
2022-09-30T08:16:32.563Z,100793.06
2022-09-30T08:19:00.931Z,100793.72
2022-09-30T08:21:28.262Z,100804.34
2022-09-30T08:23:55.000Z,100802.03
2022-09-30T08:26:21.543Z,100805.34
2022-09-30T08:28:48.253Z,100811.00
2022-09-30T08:31:21.034Z,100815.38
2022-09-30T08:33:48.195Z,100822.56
2022-09-30T08:36:17.641Z,100821.25
2022-09-30T08:38:44.566Z,100822.25
2022-09-30T08:41:29.335Z,100820.66
2022-09-30T08:44:29.877Z,100830.19
2022-09-30T08:47:30.933Z,100825.72
2022-09-30T08:50:31.041Z,100834.81
2022-09-30T08:53:00.835Z,100833.78
2022-09-30T08:55:33.872Z,100840.88
2022-09-30T08:58:02.638Z,100843.91
2022-09-30T09:00:32.086Z,100843.28
2022-09-30T09:03:00.032Z,100839.97
2022-09-30T09:05:51.731Z,100844.13
2022-09-30T09:08:52.492Z,100841.38
2022-09-30T09:11:41.305Z,100843.44
2022-09-30T09:14:39.837Z,100847.28
2022-09-30T09:18:21.662Z,100841.38
2022-09-30T09:20:59.673Z,100846.47
2022-09-30T09:23:30.102Z,100841.63
2022-09-30T09:26:00.535Z,100843.84
2022-09-30T09:28:37.256Z,100847.56
2022-09-30T09:31:04.931Z,100847.66
2022-09-30T09:33:35.359Z,100852.19
2022-09-30T09:36:15.429Z,100850.34
2022-09-30T09:39:08.192Z,100838.66
2022-09-30T09:41:38.535Z,100848.34
2022-09-30T09:44:13.645Z,100848.28
2022-09-30T09:46:50.181Z,100857.22
2022-09-30T09:49:57.556Z,100850.06
2022-09-30T09:52:54.908Z,100851.22
2022-09-30T09:55:23.919Z,100851.47
2022-09-30T09:58:05.537Z,100847.78
2022-09-30T10:00:47.108Z,100852.78
2022-09-30T10:03:23.343Z,100851.13
2022-09-30T10:06:09.785Z,100840.59
2022-09-30T10:08:40.672Z,100843.31
2022-09-30T10:11:18.828Z,100849.81
2022-09-30T10:13:48.833Z,100856.69
2022-09-30T10:16:37.995Z,100853.47
2022-09-30T10:19:22.194Z,100852.53
2022-09-30T10:21:55.345Z,100852.28
2022-09-30T10:24:32.973Z,100860.00
2022-09-30T10:27:03.789Z,100857.41
2022-09-30T10:32:20.397Z,100860.75
2022-09-30T10:34:57.245Z,100861.78
2022-09-30T10:37:25.595Z,100859.75
2022-09-30T10:40:05.162Z,100854.72
2022-09-30T10:42:37.801Z,100857.81
2022-09-30T10:45:27.620Z,100855.91
2022-09-30T10:47:58.241Z,100861.41
2022-09-30T10:50:31.920Z,100858.88
2022-09-30T10:53:23.386Z,100863.47
2022-09-30T10:55:55.508Z,100854.19
2022-09-30T10:58:43.260Z,100856.38
2022-09-30T11:01:18.499Z,100858.25
2022-09-30T11:04:05.411Z,100856.72
2022-09-30T11:06:35.838Z,100857.19
2022-09-30T11:09:02.380Z,100853.47
2022-09-30T11:11:45.809Z,100848.69
2022-09-30T11:14:58.947Z,100849.44
2022-09-30T11:17:28.507Z,100844.97
2022-09-30T11:20:18.681Z,100849.00
2022-09-30T11:23:30.556Z,100846.59
2022-09-30T11:26:17.897Z,100839.75
2022-09-30T11:28:58.059Z,100845.97
2022-09-30T11:31:50.807Z,100848.16
2022-09-30T11:34:40.947Z,100845.66
2022-09-30T11:37:16.757Z,100832.97
2022-09-30T11:40:21.947Z,100835.84
2022-09-30T11:42:55.242Z,100836.41
2022-09-30T11:45:26.988Z,100831.94
2022-09-30T11:48:10.656Z,100829.59
2022-09-30T11:50:49.378Z,100831.41
2022-09-30T11:53:41.256Z,100832.34
2022-09-30T11:56:20.587Z,100823.00
2022-09-30T11:58:57.399Z,100827.41
2022-09-30T12:01:31.230Z,100835.75
2022-09-30T12:04:24.070Z,100841.88
2022-09-30T12:07:01.093Z,100833.91
2022-09-30T12:09:51.668Z,100853.47
2022-09-30T12:12:19.328Z,100853.84
2022-09-30T12:14:52.946Z,100851.63
2022-09-30T12:17:31.508Z,100852.88
2022-09-30T12:20:03.493Z,100850.91
2022-09-30T12:22:33.483Z,100841.50
2022-09-30T12:25:01.468Z,100843.91
2022-09-30T12:27:35.435Z,100838.50
2022-09-30T12:30:17.513Z,100838.56
2022-09-30T12:33:18.293Z,100827.81
2022-09-30T12:35:44.932Z,100823.75
2022-09-30T12:38:35.998Z,100820.44
2022-09-30T12:41:21.245Z,100813.69
2022-09-30T12:43:56.503Z,100810.59
2022-09-30T12:46:41.256Z,100806.56
2022-09-30T12:49:12.591Z,100816.50
2022-09-30T12:51:42.609Z,100805.31
2022-09-30T12:54:18.238Z,100814.16
2022-09-30T12:56:47.031Z,100815.50
2022-09-30T12:59:14.632Z,100804.94
2022-09-30T13:01:42.405Z,100811.09
2022-09-30T13:04:08.792Z,100807.97
2022-09-30T13:06:47.446Z,100790.16
2022-09-30T13:09:16.793Z,100806.84
2022-09-30T13:11:48.433Z,100799.03
2022-09-30T13:14:34.831Z,100802.53
2022-09-30T13:17:10.222Z,100798.28
2022-09-30T13:19:41.735Z,100795.72
2022-09-30T13:22:20.566Z,100801.22
2022-09-30T13:25:03.895Z,100800.97
2022-09-30T13:27:39.372Z,100797.31
2022-09-30T13:30:18.282Z,100787.16
2022-09-30T13:32:57.836Z,100796.88
2022-09-30T13:35:43.589Z,100802.22
2022-09-30T13:38:12.995Z,100788.00
2022-09-30T13:41:06.376Z,100791.63
2022-09-30T13:43:41.162Z,100778.63
2022-09-30T13:46:18.564Z,100772.69
2022-09-30T13:48:55.496Z,100778.31
2022-09-30T13:51:24.352Z,100781.19
2022-09-30T13:53:54.163Z,100784.69
2022-09-30T13:56:23.478Z,100783.25
2022-09-30T13:59:11.194Z,100770.66
2022-09-30T14:02:21.438Z,100773.91
2022-09-30T14:05:16.909Z,100773.63
2022-09-30T14:07:51.749Z,100775.38
2022-09-30T14:10:46.241Z,100769.53
2022-09-30T14:13:22.014Z,100764.06
2022-09-30T14:16:40.508Z,100767.31
2022-09-30T14:19:15.835Z,100763.44
2022-09-30T14:21:45.386Z,100768.78
2022-09-30T14:24:18.737Z,100766.91
2022-09-30T14:27:16.573Z,100769.72
2022-09-30T14:30:05.011Z,100760.19
2022-09-30T14:32:40.231Z,100751.25
2022-09-30T14:35:09.469Z,100754.56
2022-09-30T14:37:47.276Z,100747.34
2022-09-30T14:40:30.646Z,100754.88
2022-09-30T14:43:03.428Z,100752.91
2022-09-30T14:45:33.077Z,100749.88
2022-09-30T14:48:06.699Z,100743.66
2022-09-30T14:50:41.392Z,100745.91
2022-09-30T14:53:25.371Z,100742.91
2022-09-30T14:55:51.826Z,100746.44
2022-09-30T14:58:30.674Z,100746.03
2022-09-30T15:01:07.245Z,100743.31
2022-09-30T15:03:41.479Z,100743.59
2022-09-30T15:06:17.576Z,100745.53
2022-09-30T15:08:44.336Z,100749.91
2022-09-30T15:11:18.113Z,100751.94
2022-09-30T15:13:45.040Z,100748.31
2022-09-30T15:16:47.114Z,100743.34
2022-09-30T15:19:34.330Z,100744.31
2022-09-30T15:22:06.384Z,100733.19
2022-09-30T15:24:34.427Z,100731.97
2022-09-30T15:27:01.528Z,100736.31
2022-09-30T15:29:28.454Z,100737.94
2022-09-30T15:32:01.187Z,100733.28
2022-09-30T15:34:28.806Z,100722.66
2022-09-30T15:37:06.750Z,100722.13
2022-09-30T15:39:58.826Z,100723.75
2022-09-30T15:42:35.409Z,100719.44
2022-09-30T15:45:04.290Z,100724.59
2022-09-30T15:47:31.038Z,100724.03
2022-09-30T15:49:57.541Z,100723.97
2022-09-30T15:52:28.312Z,100720.44
2022-09-30T15:54:55.667Z,100720.03
2022-09-30T15:57:46.985Z,100725.66
2022-09-30T16:00:38.121Z,100739.28
2022-09-30T16:03:18.642Z,100737.19
2022-09-30T16:05:48.729Z,100737.19
2022-09-30T16:08:26.642Z,100740.75
2022-09-30T16:10:54.528Z,100737.78
2022-09-30T16:13:27.357Z,100730.69
2022-09-30T16:15:54.640Z,100734.03
2022-09-30T16:18:30.131Z,100741.63
2022-09-30T16:21:02.078Z,100736.84
2022-09-30T16:23:36.673Z,100740.41
2022-09-30T16:26:15.308Z,100725.81
2022-09-30T16:28:43.437Z,100727.81
2022-09-30T16:31:10.297Z,100725.47
2022-09-30T16:33:40.876Z,100723.88
2022-09-30T16:36:08.749Z,100721.81
2022-09-30T16:38:35.186Z,100731.56
2022-09-30T16:41:03.621Z,100735.56
2022-09-30T16:43:31.620Z,100727.09
2022-09-30T16:45:59.935Z,100727.13
2022-09-30T16:48:28.271Z,100730.09
2022-09-30T16:51:02.725Z,100731.63
2022-09-30T16:53:29.257Z,100720.72
2022-09-30T16:55:56.455Z,100726.38
2022-09-30T16:58:22.975Z,100718.50
2022-09-30T17:00:49.439Z,100722.50
2022-09-30T17:03:17.327Z,100716.69
2022-09-30T17:05:45.548Z,100722.03
2022-09-30T17:08:13.919Z,100722.59
2022-09-30T17:10:42.811Z,100724.25
2022-09-30T17:13:09.706Z,100730.22
2022-09-30T17:15:37.354Z,100722.53
2022-09-30T17:18:08.267Z,100726.69
2022-09-30T17:20:36.340Z,100724.09
2022-09-30T17:23:07.115Z,100722.56
2022-09-30T17:25:34.445Z,100722.66
2022-09-30T17:28:01.185Z,100724.28
2022-09-30T17:30:27.884Z,100732.03
2022-09-30T17:32:54.484Z,100724.03
2022-09-30T17:35:22.518Z,100724.59
2022-09-30T17:37:49.004Z,100727.09
2022-09-30T17:40:34.222Z,100729.28
2022-09-30T17:43:12.804Z,100730.09
2022-09-30T17:45:41.873Z,100724.19
2022-09-30T17:48:09.591Z,100719.44
2022-09-30T17:50:37.618Z,100719.78
2022-09-30T17:53:05.935Z,100719.16
2022-09-30T17:55:33.699Z,100719.69
2022-09-30T17:58:03.280Z,100714.25
2022-09-30T18:00:30.990Z,100717.91
2022-09-30T18:02:57.566Z,100718.78
2022-09-30T18:05:27.406Z,100715.38
2022-09-30T18:07:53.811Z,100727.66
2022-09-30T18:10:20.325Z,100718.56
2022-09-30T18:12:51.714Z,100714.06
2022-09-30T18:15:18.857Z,100717.09
2022-09-30T18:17:45.291Z,100711.66
2022-09-30T18:20:12.390Z,100714.44
2022-09-30T18:22:38.840Z,100706.81
2022-09-30T18:25:21.793Z,100700.81
2022-09-30T18:27:54.696Z,100699.72
2022-09-30T18:30:21.656Z,100696.59
2022-09-30T18:32:49.642Z,100699.59
2022-09-30T18:35:18.483Z,100692.69
2022-09-30T18:37:47.225Z,100698.50
2022-09-30T18:40:16.641Z,100699.09
2022-09-30T18:42:44.337Z,100692.97
2022-09-30T18:45:12.669Z,100703.38
2022-09-30T18:47:43.897Z,100706.19
2022-09-30T18:50:14.209Z,100699.34
2022-09-30T18:52:40.646Z,100695.91
2022-09-30T18:55:09.564Z,100692.28
2022-09-30T18:57:36.040Z,100691.75
2022-09-30T19:00:02.595Z,100680.41
2022-09-30T19:02:29.549Z,100684.16
2022-09-30T19:04:59.939Z,100690.91
2022-09-30T19:07:27.109Z,100683.06
2022-09-30T19:09:53.476Z,100687.78
2022-09-30T19:12:20.660Z,100686.28
2022-09-30T19:14:47.752Z,100688.66
2022-09-30T19:17:14.340Z,100673.25
2022-09-30T19:19:45.693Z,100675.16
2022-09-30T19:22:13.483Z,100677.28
2022-09-30T19:24:39.906Z,100674.09
2022-09-30T19:27:06.353Z,100673.13
2022-09-30T19:29:33.792Z,100671.94
2022-09-30T19:32:00.274Z,100668.59
2022-09-30T19:34:32.113Z,100667.22
2022-09-30T19:36:59.768Z,100654.38
2022-09-30T19:39:35.997Z,100662.19
2022-09-30T19:42:05.957Z,100657.59
2022-09-30T19:44:32.551Z,100651.59
2022-09-30T19:46:59.117Z,100639.63
2022-09-30T19:49:25.521Z,100643.78
2022-09-30T19:51:54.876Z,100640.41
2022-09-30T19:54:33.231Z,100639.09
2022-09-30T19:57:02.206Z,100638.47
2022-09-30T19:59:29.172Z,100639.63
2022-09-30T20:01:55.654Z,100631.16
2022-09-30T20:04:22.309Z,100627.09
2022-09-30T20:06:48.743Z,100624.78
2022-09-30T20:09:15.189Z,100616.72
2022-09-30T20:11:42.132Z,100621.94
2022-09-30T20:14:27.245Z,100615.97
2022-09-30T20:16:54.267Z,100608.50
2022-09-30T20:19:22.305Z,100608.59
2022-09-30T20:21:50.008Z,100608.03
2022-09-30T20:24:17.701Z,100608.78
2022-09-30T20:26:45.163Z,100599.50
2022-09-30T20:29:11.896Z,100603.16
2022-09-30T20:31:40.981Z,100592.22
2022-09-30T20:34:08.872Z,100593.81
2022-09-30T20:36:35.256Z,100587.16
2022-09-30T20:39:02.666Z,100596.16
2022-09-30T20:41:31.385Z,100580.31
2022-09-30T20:43:58.697Z,100582.34
2022-09-30T20:46:26.767Z,100589.88
2022-09-30T20:48:53.157Z,100589.31
2022-09-30T20:51:20.340Z,100589.09
2022-09-30T20:53:51.198Z,100588.47
2022-09-30T20:56:19.804Z,100589.44
2022-09-30T20:58:46.625Z,100589.31
2022-09-30T21:01:14.503Z,100583.22
2022-09-30T21:03:41.545Z,100580.44
2022-09-30T21:06:10.612Z,100573.59
2022-09-30T21:08:42.488Z,100574.25
2022-09-30T21:11:10.206Z,100571.25
2022-09-30T21:13:38.328Z,100570.16
2022-09-30T21:16:06.660Z,100569.69
2022-09-30T21:18:33.426Z,100566.78
2022-09-30T21:21:01.389Z,100571.47
2022-09-30T21:23:28.897Z,100565.81
2022-09-30T21:26:10.532Z,100567.50
2022-09-30T21:28:37.505Z,100561.59
2022-09-30T21:31:05.830Z,100556.19
2022-09-30T21:33:32.251Z,100556.41
2022-09-30T21:36:03.017Z,100554.34
2022-09-30T21:38:30.019Z,100547.00
2022-09-30T21:41:01.532Z,100551.81
2022-09-30T21:43:31.698Z,100547.28
2022-09-30T21:46:03.447Z,100552.00
2022-09-30T21:48:30.583Z,100539.63
2022-09-30T21:50:57.019Z,100545.00
2022-09-30T21:53:27.218Z,100540.41
2022-09-30T21:55:58.617Z,100534.75
2022-09-30T21:58:26.372Z,100530.69
2022-09-30T22:00:56.805Z,100526.16
2022-09-30T22:03:23.527Z,100532.03
2022-09-30T22:05:53.664Z,100527.13
2022-09-30T22:08:21.053Z,100525.94
2022-09-30T22:10:47.894Z,100527.03
2022-09-30T22:13:17.988Z,100526.63
2022-09-30T22:15:45.459Z,100518.09
2022-09-30T22:18:16.672Z,100513.66
2022-09-30T22:20:43.984Z,100514.69
2022-09-30T22:23:10.800Z,100520.88
2022-09-30T22:25:37.263Z,100510.91
2022-09-30T22:28:04.627Z,100514.06
2022-09-30T22:30:32.591Z,100509.78
2022-09-30T22:33:17.690Z,100502.97
2022-09-30T22:36:02.616Z,100507.78
2022-09-30T22:38:29.653Z,100510.50
2022-09-30T22:40:56.108Z,100507.41
2022-09-30T22:43:24.413Z,100507.53
2022-09-30T22:46:04.767Z,100505.16
2022-09-30T22:48:31.832Z,100496.41
2022-09-30T22:50:59.049Z,100496.41
2022-09-30T22:53:26.265Z,100490.19
2022-09-30T22:55:53.103Z,100489.25
2022-09-30T22:58:20.473Z,100490.97
2022-09-30T23:00:58.457Z,100479.25
2022-09-30T23:03:25.797Z,100479.19
2022-09-30T23:05:53.890Z,100476.50
2022-09-30T23:08:20.308Z,100478.69
2022-09-30T23:10:50.293Z,100472.56
2022-09-30T23:13:19.979Z,100462.09
2022-09-30T23:15:47.773Z,100461.34
2022-09-30T23:18:17.292Z,100462.00
2022-09-30T23:20:54.632Z,100459.59
2022-09-30T23:23:21.057Z,100443.16
2022-09-30T23:25:48.086Z,100438.16
2022-09-30T23:28:14.628Z,100439.06
2022-09-30T23:30:41.096Z,100431.34
2022-09-30T23:33:09.580Z,100431.22
2022-09-30T23:35:35.979Z,100421.38
2022-09-30T23:38:02.392Z,100428.59
2022-09-30T23:40:28.772Z,100421.50
2022-09-30T23:42:55.238Z,100418.88
2022-09-30T23:45:21.645Z,100427.50
2022-09-30T23:47:48.616Z,100421.34
2022-09-30T23:50:15.599Z,100412.47
2022-09-30T23:52:44.137Z,100413.72
2022-09-30T23:55:11.523Z,100411.53
2022-09-30T23:57:38.112Z,100403.59
